createdAt,value
2018-09-01T00:00:02.186Z,15.20
2018-09-01T00:01:06.142Z,15.20
2018-09-01T00:02:09.825Z,15.20
2018-09-01T00:03:13.125Z,15.20
2018-09-01T00:04:16.492Z,15.20
2018-09-01T00:05:20.069Z,15.20
2018-09-01T00:06:23.400Z,15.20
2018-09-01T00:07:26.875Z,15.20
2018-09-01T00:08:30.244Z,15.20
2018-09-01T00:09:35.448Z,15.20
2018-09-01T00:10:38.867Z,15.10
2018-09-01T00:11:42.479Z,15.10
2018-09-01T00:12:46.189Z,15.20
2018-09-01T00:13:49.524Z,15.10
2018-09-01T00:14:53.058Z,15.10
2018-09-01T00:15:57.015Z,15.10
2018-09-01T00:17:00.548Z,15.10
2018-09-01T00:18:03.900Z,15.10
2018-09-01T00:19:07.357Z,15.10
2018-09-01T00:20:10.849Z,15.10
2018-09-01T00:21:14.299Z,15.10
2018-09-01T00:22:17.648Z,15.10
2018-09-01T00:23:21.048Z,15.10
2018-09-01T00:24:24.444Z,15.10
2018-09-01T00:25:27.867Z,15.10
2018-09-01T00:26:31.307Z,15.10
2018-09-01T00:27:34.717Z,15.10
2018-09-01T00:28:38.116Z,15.10
2018-09-01T00:29:41.559Z,15.10
2018-09-01T00:30:45.150Z,15.10
2018-09-01T00:31:48.439Z,15.00
2018-09-01T00:32:51.835Z,15.00
2018-09-01T00:33:55.272Z,15.00
2018-09-01T00:34:58.626Z,14.90
2018-09-01T00:36:02.154Z,14.90
2018-09-01T00:37:05.742Z,14.90
2018-09-01T00:38:14.730Z,14.90
2018-09-01T00:39:18.123Z,14.90
2018-09-01T00:40:26.083Z,14.90
2018-09-01T00:41:29.868Z,14.80
2018-09-01T00:42:33.443Z,14.80
2018-09-01T00:43:37.219Z,14.80
2018-09-01T00:44:40.952Z,14.80
2018-09-01T00:45:44.523Z,14.80
2018-09-01T00:46:48.034Z,14.80
2018-09-01T00:47:51.428Z,14.80
2018-09-01T00:48:54.980Z,14.80
2018-09-01T00:49:58.488Z,14.80
2018-09-01T00:51:02.090Z,14.80
2018-09-01T00:52:05.536Z,14.80
2018-09-01T00:53:09.281Z,14.80
2018-09-01T00:54:12.643Z,14.80
2018-09-01T00:55:21.885Z,14.80
2018-09-01T00:56:25.357Z,14.80
2018-09-01T00:57:29.027Z,14.70
2018-09-01T00:58:32.507Z,14.70
2018-09-01T00:59:36.034Z,14.80
2018-09-01T01:00:39.453Z,14.70
2018-09-01T01:01:42.886Z,14.80
2018-09-01T01:02:46.243Z,14.80
2018-09-01T01:03:49.852Z,14.70
2018-09-01T01:04:53.361Z,14.80
2018-09-01T01:05:57.348Z,14.80
2018-09-01T01:07:00.763Z,14.80
2018-09-01T01:08:04.443Z,14.80
2018-09-01T01:09:08.045Z,14.80
2018-09-01T01:10:11.533Z,14.80
2018-09-01T01:11:16.969Z,14.80
2018-09-01T01:12:20.340Z,14.80
2018-09-01T01:13:23.803Z,14.80
2018-09-01T01:14:27.676Z,14.80
2018-09-01T01:15:31.127Z,14.80
2018-09-01T01:16:34.727Z,14.80
2018-09-01T01:17:38.322Z,14.80
2018-09-01T01:18:41.792Z,14.80
2018-09-01T01:19:45.647Z,14.80
2018-09-01T01:20:49.183Z,14.80
2018-09-01T01:21:52.525Z,14.80
2018-09-01T01:22:56.100Z,14.80
2018-09-01T01:23:59.712Z,14.80
2018-09-01T01:25:03.941Z,14.80
2018-09-01T01:26:07.988Z,14.80
2018-09-01T01:27:11.480Z,14.80
2018-09-01T01:28:14.983Z,14.70
2018-09-01T01:29:18.523Z,14.70
2018-09-01T01:30:22.109Z,14.70
2018-09-01T01:31:25.883Z,14.70
2018-09-01T01:32:29.458Z,14.70
2018-09-01T01:33:33.064Z,14.70
2018-09-01T01:34:36.464Z,14.70
2018-09-01T01:35:39.858Z,14.70
2018-09-01T01:36:43.301Z,14.70
2018-09-01T01:37:46.814Z,14.60
2018-09-01T01:38:50.447Z,14.60
2018-09-01T01:39:53.948Z,14.60
2018-09-01T01:40:57.334Z,14.60
2018-09-01T01:42:00.918Z,14.60
2018-09-01T01:43:04.538Z,14.60
2018-09-01T01:44:07.893Z,14.60
2018-09-01T01:45:11.353Z,14.60
2018-09-01T01:46:15.027Z,14.60
2018-09-01T01:47:18.385Z,14.60
2018-09-01T01:48:21.678Z,14.60
2018-09-01T01:49:25.219Z,14.60
2018-09-01T01:50:28.559Z,14.60
2018-09-01T01:51:32.082Z,14.60
2018-09-01T01:52:35.407Z,14.60
2018-09-01T01:53:38.744Z,14.60
2018-09-01T01:54:42.266Z,14.50
2018-09-01T01:55:45.552Z,14.50
2018-09-01T01:56:49.013Z,14.50
2018-09-01T01:57:52.537Z,14.50
2018-09-01T01:58:55.928Z,14.50
2018-09-01T01:59:59.537Z,14.50
2018-09-01T02:01:03.038Z,14.50
2018-09-01T02:02:06.503Z,14.50
2018-09-01T02:03:09.981Z,14.50
2018-09-01T02:04:13.735Z,14.50
2018-09-01T02:05:20.355Z,14.50
2018-09-01T02:06:25.072Z,14.50
2018-09-01T02:07:28.449Z,14.50
2018-09-01T02:08:31.783Z,14.40
2018-09-01T02:09:35.248Z,14.40
2018-09-01T02:10:38.699Z,14.40
2018-09-01T02:11:42.241Z,14.40
2018-09-01T02:12:45.583Z,14.50
2018-09-01T02:13:48.986Z,14.40
2018-09-01T02:14:52.434Z,14.40
2018-09-01T02:15:55.913Z,14.40
2018-09-01T02:16:59.329Z,14.40
2018-09-01T02:18:02.726Z,14.40
2018-09-01T02:19:06.594Z,14.40
2018-09-01T02:20:09.595Z,14.40
2018-09-01T02:21:13.167Z,14.40
2018-09-01T02:22:16.538Z,14.30
2018-09-01T02:23:20.079Z,14.40
2018-09-01T02:24:23.461Z,14.30
2018-09-01T02:25:26.881Z,14.30
2018-09-01T02:26:30.438Z,14.30
2018-09-01T02:27:34.004Z,14.30
2018-09-01T02:28:37.448Z,14.30
2018-09-01T02:29:40.869Z,14.30
2018-09-01T02:30:44.266Z,14.30
2018-09-01T02:31:47.860Z,14.30
2018-09-01T02:32:51.239Z,14.30
2018-09-01T02:33:54.708Z,14.30
2018-09-01T02:34:58.068Z,14.30
2018-09-01T02:36:01.629Z,14.30
2018-09-01T02:37:05.403Z,14.30
2018-09-01T02:38:08.897Z,14.40
2018-09-01T02:39:12.298Z,14.30
2018-09-01T02:40:15.817Z,14.30
2018-09-01T02:41:19.359Z,14.30
2018-09-01T02:42:22.720Z,14.30
2018-09-01T02:43:26.204Z,14.30
2018-09-01T02:44:29.560Z,14.30
2018-09-01T02:45:32.984Z,14.30
2018-09-01T02:46:36.288Z,14.30
2018-09-01T02:47:39.846Z,14.30
2018-09-01T02:48:43.381Z,14.30
2018-09-01T02:49:46.762Z,14.30
2018-09-01T02:50:50.022Z,14.30
2018-09-01T02:51:53.470Z,14.30
2018-09-01T02:52:56.791Z,14.30
2018-09-01T02:54:00.168Z,14.20
2018-09-01T02:55:03.690Z,14.30
2018-09-01T02:56:07.046Z,14.30
2018-09-01T02:57:10.452Z,14.20
2018-09-01T02:58:14.062Z,14.20
2018-09-01T02:59:17.484Z,14.20
2018-09-01T03:00:26.526Z,14.20
2018-09-01T03:01:34.931Z,14.20
2018-09-01T03:02:43.715Z,14.10
2018-09-01T03:03:47.353Z,14.10
2018-09-01T03:04:50.652Z,14.10
2018-09-01T03:05:54.192Z,14.10
2018-09-01T03:06:58.737Z,14.10
2018-09-01T03:08:03.202Z,14.10
2018-09-01T03:09:06.836Z,14.10
2018-09-01T03:10:10.332Z,14.10
2018-09-01T03:11:13.914Z,14.10
2018-09-01T03:12:17.492Z,14.10
2018-09-01T03:13:20.983Z,14.10
2018-09-01T03:14:25.304Z,14.10
2018-09-01T03:15:28.612Z,14.00
2018-09-01T03:16:31.999Z,14.00
2018-09-01T03:17:35.481Z,14.00
2018-09-01T03:18:38.831Z,14.00
2018-09-01T03:19:42.305Z,14.00
2018-09-01T03:20:45.784Z,14.00
2018-09-01T03:21:49.268Z,14.00
2018-09-01T03:22:52.868Z,14.00
2018-09-01T03:23:56.329Z,14.00
2018-09-01T03:24:59.851Z,14.00
2018-09-01T03:26:03.443Z,14.00
2018-09-01T03:27:06.976Z,14.00
2018-09-01T03:28:10.546Z,13.90
2018-09-01T03:29:14.029Z,14.00
2018-09-01T03:30:17.361Z,13.90
2018-09-01T03:31:20.621Z,14.00
2018-09-01T03:32:24.002Z,14.00
2018-09-01T03:33:27.353Z,13.90
2018-09-01T03:34:30.698Z,14.00
2018-09-01T03:35:34.546Z,14.00
2018-09-01T03:36:37.939Z,13.90
2018-09-01T03:37:41.375Z,13.90
2018-09-01T03:38:44.842Z,13.90
2018-09-01T03:39:48.265Z,13.90
2018-09-01T03:40:51.567Z,13.90
2018-09-01T03:41:55.039Z,13.90
2018-09-01T03:42:58.439Z,13.80
2018-09-01T03:44:01.899Z,13.80
2018-09-01T03:45:05.954Z,13.80
2018-09-01T03:46:09.310Z,13.90
2018-09-01T03:47:12.792Z,13.80
2018-09-01T03:48:16.219Z,13.80
2018-09-01T03:49:19.720Z,13.80
2018-09-01T03:50:23.102Z,13.80
2018-09-01T03:51:27.858Z,13.80
2018-09-01T03:52:31.250Z,13.80
2018-09-01T03:53:34.590Z,13.80
2018-09-01T03:54:38.226Z,13.80
2018-09-01T03:55:41.642Z,13.80
2018-09-01T03:56:44.985Z,13.80
2018-09-01T03:57:48.592Z,13.80
2018-09-01T03:58:52.188Z,13.80
2018-09-01T03:59:55.582Z,13.80
2018-09-01T04:00:59.384Z,13.70
2018-09-01T04:02:02.956Z,13.80
2018-09-01T04:03:06.296Z,13.70
2018-09-01T04:04:09.677Z,13.80
2018-09-01T04:05:13.084Z,13.70
2018-09-01T04:06:16.619Z,13.70
2018-09-01T04:07:20.115Z,13.70
2018-09-01T04:08:23.499Z,13.70
2018-09-01T04:09:27.195Z,13.70
2018-09-01T04:10:30.655Z,13.70
2018-09-01T04:11:34.032Z,13.70
2018-09-01T04:12:37.556Z,13.70
2018-09-01T04:13:40.964Z,13.70
2018-09-01T04:14:44.251Z,13.70
2018-09-01T04:15:47.922Z,13.70
2018-09-01T04:16:51.380Z,13.70
2018-09-01T04:17:54.776Z,13.70
2018-09-01T04:19:02.912Z,13.70
2018-09-01T04:20:06.518Z,13.70
2018-09-01T04:21:09.924Z,13.70
2018-09-01T04:22:13.453Z,13.60
2018-09-01T04:23:16.776Z,13.70
2018-09-01T04:24:20.308Z,13.70
2018-09-01T04:25:24.052Z,13.70
2018-09-01T04:26:27.416Z,13.70
2018-09-01T04:27:31.139Z,13.70
2018-09-01T04:28:34.563Z,13.70
2018-09-01T04:29:37.983Z,13.70
2018-09-01T04:30:41.354Z,13.70
2018-09-01T04:31:45.140Z,13.70
2018-09-01T04:32:48.589Z,13.60
2018-09-01T04:33:52.026Z,13.60
2018-09-01T04:34:55.320Z,13.60
2018-09-01T04:35:58.683Z,13.60
2018-09-01T04:37:02.082Z,13.60
2018-09-01T04:38:05.567Z,13.50
2018-09-01T04:39:10.977Z,13.60
2018-09-01T04:40:14.595Z,13.60
2018-09-01T04:41:18.108Z,13.60
2018-09-01T04:42:21.452Z,13.60
2018-09-01T04:43:24.836Z,13.60
2018-09-01T04:44:28.292Z,13.60
2018-09-01T04:45:31.841Z,13.60
2018-09-01T04:46:35.350Z,13.50
2018-09-01T04:47:38.675Z,13.50
2018-09-01T04:48:42.188Z,13.50
2018-09-01T04:49:45.505Z,13.50
2018-09-01T04:50:48.937Z,13.50
2018-09-01T04:51:52.313Z,13.60
2018-09-01T04:52:55.860Z,13.50
2018-09-01T04:53:59.257Z,13.50
2018-09-01T04:55:02.661Z,13.60
2018-09-01T04:56:05.885Z,13.60
2018-09-01T04:57:09.304Z,13.60
2018-09-01T04:58:12.810Z,13.70
2018-09-01T04:59:16.172Z,13.70
2018-09-01T05:00:22.098Z,13.70
2018-09-01T05:01:24.913Z,13.70
2018-09-01T05:02:27.887Z,13.70
2018-09-01T05:03:30.619Z,13.70
2018-09-01T05:04:33.466Z,13.70
2018-09-01T05:05:36.481Z,13.70
2018-09-01T05:06:39.373Z,13.80
2018-09-01T05:07:42.067Z,13.80
2018-09-01T05:08:44.959Z,13.80
2018-09-01T05:09:47.901Z,13.80
2018-09-01T05:10:50.642Z,13.80
2018-09-01T05:11:53.393Z,13.80
2018-09-01T05:12:56.109Z,13.80
2018-09-01T05:13:58.926Z,13.80
2018-09-01T05:15:01.743Z,13.80
2018-09-01T05:16:04.826Z,13.80
2018-09-01T05:17:07.720Z,13.90
2018-09-01T05:18:10.699Z,13.80
2018-09-01T05:19:13.526Z,13.90
2018-09-01T05:20:16.398Z,13.90
2018-09-01T05:21:19.174Z,13.90
2018-09-01T05:22:21.936Z,13.90
2018-09-01T05:23:24.709Z,13.90
2018-09-01T05:24:27.478Z,13.80
2018-09-01T05:25:30.583Z,13.80
2018-09-01T05:26:33.276Z,13.90
2018-09-01T05:27:36.241Z,13.80
2018-09-01T05:28:39.021Z,13.80
2018-09-01T05:29:41.786Z,13.80
2018-09-01T05:30:44.542Z,13.90
2018-09-01T05:31:47.979Z,13.90
2018-09-01T05:32:51.283Z,14.00
2018-09-01T05:33:54.665Z,14.00
2018-09-01T05:34:58.116Z,14.00
2018-09-01T05:36:01.445Z,14.00
2018-09-01T05:37:05.615Z,14.00
2018-09-01T05:38:09.069Z,14.10
2018-09-01T05:39:12.531Z,14.00
2018-09-01T05:40:16.086Z,14.00
2018-09-01T05:41:19.545Z,14.10
2018-09-01T05:42:22.925Z,14.10
2018-09-01T05:43:26.507Z,14.00
2018-09-01T05:44:29.888Z,14.10
2018-09-01T05:45:33.434Z,14.10
2018-09-01T05:46:36.813Z,14.10
2018-09-01T05:47:40.236Z,14.10
2018-09-01T05:48:43.657Z,14.20
2018-09-01T05:49:47.269Z,14.20
2018-09-01T05:50:50.747Z,14.20
2018-09-01T05:51:54.123Z,14.20
2018-09-01T05:52:57.604Z,14.30
2018-09-01T05:54:01.010Z,14.30
2018-09-01T05:55:04.392Z,14.30
2018-09-01T05:56:07.918Z,14.30
2018-09-01T05:57:11.234Z,14.30
2018-09-01T05:58:14.539Z,14.30
2018-09-01T05:59:18.153Z,14.30
2018-09-01T06:00:22.528Z,14.30
2018-09-01T06:01:25.950Z,14.30
2018-09-01T06:02:29.405Z,14.30
2018-09-01T06:03:32.823Z,14.30
2018-09-01T06:04:36.175Z,14.40
2018-09-01T06:05:40.042Z,14.30
2018-09-01T06:06:43.686Z,14.40
2018-09-01T06:07:47.244Z,14.40
2018-09-01T06:08:50.636Z,14.40
2018-09-01T06:09:53.982Z,14.40
2018-09-01T06:10:57.403Z,14.40
2018-09-01T06:12:01.057Z,14.40
2018-09-01T06:13:03.765Z,14.30
2018-09-01T06:14:07.007Z,14.40
2018-09-01T06:15:10.414Z,14.40
2018-09-01T06:16:13.447Z,14.40
2018-09-01T06:17:16.209Z,14.40
2018-09-01T06:18:19.002Z,14.50
2018-09-01T06:19:21.980Z,14.60
2018-09-01T06:20:25.529Z,14.60
2018-09-01T06:21:29.085Z,14.70
2018-09-01T06:22:31.809Z,14.70
2018-09-01T06:23:34.585Z,14.80
2018-09-01T06:24:37.316Z,14.80
2018-09-01T06:25:40.034Z,14.80
2018-09-01T06:26:42.810Z,14.90
2018-09-01T06:27:48.245Z,14.90
2018-09-01T06:28:55.977Z,14.90
2018-09-01T06:29:58.786Z,14.90
2018-09-01T06:31:01.568Z,14.90
2018-09-01T06:32:06.034Z,14.90
2018-09-01T06:33:09.016Z,14.90
2018-09-01T06:34:12.066Z,14.90
2018-09-01T06:35:14.964Z,14.90
2018-09-01T06:36:17.797Z,14.90
2018-09-01T06:37:20.743Z,14.90
2018-09-01T06:38:23.514Z,14.90
2018-09-01T06:39:26.441Z,15.00
2018-09-01T06:40:29.292Z,15.00
2018-09-01T06:41:32.303Z,15.00
2018-09-01T06:42:35.388Z,15.00
2018-09-01T06:43:38.546Z,15.00
2018-09-01T06:44:41.344Z,15.00
2018-09-01T06:45:44.351Z,15.10
2018-09-01T06:46:47.357Z,15.10
2018-09-01T06:47:50.245Z,15.20
2018-09-01T06:48:53.318Z,15.20
2018-09-01T06:49:56.127Z,15.30
2018-09-01T06:50:59.095Z,15.30
2018-09-01T06:52:01.879Z,15.30
2018-09-01T06:53:05.115Z,15.30
2018-09-01T06:54:07.999Z,15.30
2018-09-01T06:55:10.972Z,15.30
2018-09-01T06:56:13.913Z,15.30
2018-09-01T06:57:16.736Z,15.30
2018-09-01T06:58:19.493Z,15.30
2018-09-01T06:59:22.391Z,15.30
2018-09-01T07:00:25.279Z,15.30
2018-09-01T07:01:28.253Z,15.30
2018-09-01T07:02:31.129Z,15.40
2018-09-01T07:03:33.944Z,15.40
2018-09-01T07:04:36.840Z,15.40
2018-09-01T07:05:39.813Z,15.40
2018-09-01T07:06:42.574Z,15.40
2018-09-01T07:07:45.401Z,15.40
2018-09-01T07:08:49.459Z,15.40
2018-09-01T07:09:52.274Z,15.40
2018-09-01T07:10:55.048Z,15.40
2018-09-01T07:11:57.972Z,15.50
2018-09-01T07:13:01.149Z,15.50
2018-09-01T07:14:04.140Z,15.50
2018-09-01T07:15:06.917Z,15.50
2018-09-01T07:16:09.878Z,15.50
2018-09-01T07:17:12.840Z,15.50
2018-09-01T07:18:15.712Z,15.50
2018-09-01T07:19:18.689Z,15.40
2018-09-01T07:20:21.790Z,15.40
2018-09-01T07:21:24.729Z,15.30
2018-09-01T07:22:27.660Z,15.30
2018-09-01T07:23:30.514Z,15.20
2018-09-01T07:24:33.433Z,15.20
2018-09-01T07:25:36.393Z,15.20
2018-09-01T07:26:39.248Z,15.20
2018-09-01T07:27:42.079Z,15.30
2018-09-01T07:28:44.902Z,15.30
2018-09-01T07:29:47.935Z,15.40
2018-09-01T07:30:51.007Z,15.40
2018-09-01T07:31:53.726Z,15.50
2018-09-01T07:32:56.443Z,15.60
2018-09-01T07:33:59.205Z,15.70
2018-09-01T07:35:02.020Z,15.70
2018-09-01T07:36:04.818Z,15.80
2018-09-01T07:37:07.775Z,15.90
2018-09-01T07:38:10.460Z,15.90
2018-09-01T07:39:13.348Z,15.90
2018-09-01T07:40:16.106Z,15.90
2018-09-01T07:41:19.057Z,15.90
2018-09-01T07:42:21.893Z,15.90
2018-09-01T07:43:24.908Z,16.00
2018-09-01T07:44:27.992Z,16.00
2018-09-01T07:45:31.085Z,16.00
2018-09-01T07:46:33.878Z,16.00
2018-09-01T07:47:36.852Z,16.10
2018-09-01T07:48:39.656Z,16.20
2018-09-01T07:49:42.906Z,16.30
2018-09-01T07:50:45.695Z,16.50
2018-09-01T07:51:48.610Z,16.60
2018-09-01T07:52:51.714Z,16.70
2018-09-01T07:53:54.594Z,16.80
2018-09-01T07:54:57.430Z,16.90
2018-09-01T07:56:00.378Z,17.00
2018-09-01T07:57:03.747Z,17.10
2018-09-01T07:58:06.927Z,17.10
2018-09-01T07:59:10.097Z,17.10
2018-09-01T08:00:12.930Z,17.10
2018-09-01T08:01:15.671Z,17.10
2018-09-01T08:02:19.589Z,17.10
2018-09-01T08:03:22.453Z,17.20
2018-09-01T08:04:25.240Z,17.30
2018-09-01T08:05:28.473Z,17.30
2018-09-01T08:06:31.522Z,17.40
2018-09-01T08:07:34.482Z,17.40
2018-09-01T08:08:37.343Z,17.40
2018-09-01T08:09:40.160Z,17.40
2018-09-01T08:10:43.000Z,17.30
2018-09-01T08:11:47.024Z,17.30
2018-09-01T08:12:49.925Z,17.30
2018-09-01T08:13:52.856Z,17.20
2018-09-01T08:14:55.627Z,17.20
2018-09-01T08:15:58.565Z,17.20
2018-09-01T08:17:01.566Z,17.20
2018-09-01T08:18:04.818Z,17.30
2018-09-01T08:19:07.820Z,17.30
2018-09-01T08:20:10.863Z,17.40
2018-09-01T08:21:13.808Z,17.40
2018-09-01T08:22:16.758Z,17.40
2018-09-01T08:23:19.619Z,17.30
2018-09-01T08:24:23.175Z,17.30
2018-09-01T08:25:26.152Z,17.40
2018-09-01T08:26:29.008Z,17.50
2018-09-01T08:27:32.299Z,17.60
2018-09-01T08:28:35.093Z,17.70
2018-09-01T08:29:38.023Z,17.80
2018-09-01T08:30:41.057Z,17.90
2018-09-01T08:31:43.916Z,17.90
2018-09-01T08:32:46.786Z,17.90
2018-09-01T08:33:49.691Z,17.80
2018-09-01T08:34:52.503Z,17.70
2018-09-01T08:35:55.283Z,17.60
2018-09-01T08:36:58.268Z,17.60
2018-09-01T08:38:01.332Z,17.70
2018-09-01T08:39:05.358Z,17.70
2018-09-01T08:40:08.279Z,17.80
2018-09-01T08:41:11.310Z,17.80
2018-09-01T08:42:14.259Z,17.90
2018-09-01T08:43:17.374Z,17.90
2018-09-01T08:44:21.121Z,18.00
2018-09-01T08:45:24.068Z,18.00
2018-09-01T08:46:26.988Z,18.10
2018-09-01T08:47:29.801Z,18.10
2018-09-01T08:48:32.813Z,18.20
2018-09-01T08:49:35.505Z,18.20
2018-09-01T08:50:38.265Z,18.30
2018-09-01T08:51:40.966Z,18.30
2018-09-01T08:52:43.700Z,18.30
2018-09-01T08:53:46.491Z,18.30
2018-09-01T08:54:49.338Z,18.30
2018-09-01T08:55:52.188Z,18.30
2018-09-01T08:56:55.095Z,18.40
2018-09-01T08:57:57.848Z,18.40
2018-09-01T08:59:00.541Z,18.40
2018-09-01T09:00:03.755Z,18.40
2018-09-01T09:01:06.463Z,18.40
2018-09-01T09:02:09.210Z,18.40
2018-09-01T09:03:11.945Z,18.40
2018-09-01T09:04:14.761Z,18.40
2018-09-01T09:05:17.639Z,18.30
2018-09-01T09:06:20.417Z,18.40
2018-09-01T09:07:23.226Z,18.40
2018-09-01T09:08:26.302Z,18.40
2018-09-01T09:09:29.029Z,18.40
2018-09-01T09:10:31.727Z,18.40
2018-09-01T09:11:34.816Z,18.40
2018-09-01T09:12:37.650Z,18.40
2018-09-01T09:13:40.555Z,18.50
2018-09-01T09:14:43.294Z,18.50
2018-09-01T09:15:46.077Z,18.50
2018-09-01T09:16:48.867Z,18.50
2018-09-01T09:17:51.789Z,18.60
2018-09-01T09:18:54.514Z,18.70
2018-09-01T09:19:57.267Z,18.70
2018-09-01T09:21:00.289Z,18.80
2018-09-01T09:22:03.121Z,18.80
2018-09-01T09:23:06.533Z,18.80
2018-09-01T09:24:09.298Z,18.80
2018-09-01T09:25:12.280Z,18.70
2018-09-01T09:26:15.033Z,18.80
2018-09-01T09:27:17.872Z,18.90
2018-09-01T09:28:20.615Z,19.00
2018-09-01T09:29:23.466Z,19.00
2018-09-01T09:30:26.167Z,19.00
2018-09-01T09:31:28.933Z,19.10
2018-09-01T09:32:31.708Z,19.10
2018-09-01T09:33:34.649Z,19.20
2018-09-01T09:34:37.343Z,19.20
2018-09-01T09:35:40.392Z,19.30
2018-09-01T09:36:43.221Z,19.30
2018-09-01T09:37:46.181Z,19.40
2018-09-01T09:38:49.340Z,19.40
2018-09-01T09:39:52.135Z,19.50
2018-09-01T09:40:55.189Z,19.70
2018-09-01T09:41:58.040Z,19.80
2018-09-01T09:43:00.757Z,19.90
2018-09-01T09:44:03.482Z,20.10
2018-09-01T09:45:06.300Z,20.20
2018-09-01T09:46:09.059Z,20.30
2018-09-01T09:47:11.875Z,20.20
2018-09-01T09:48:15.026Z,20.20
2018-09-01T09:49:17.838Z,20.20
2018-09-01T09:50:20.643Z,20.10
2018-09-01T09:51:23.339Z,20.20
2018-09-01T09:52:26.535Z,20.20
2018-09-01T09:53:29.399Z,20.20
2018-09-01T09:54:32.365Z,20.30
2018-09-01T09:55:35.093Z,20.30
2018-09-01T09:56:38.027Z,20.40
2018-09-01T09:57:40.726Z,20.40
2018-09-01T09:58:43.644Z,20.40
2018-09-01T09:59:46.362Z,20.40
2018-09-01T10:00:55.001Z,20.40
2018-09-01T10:02:00.641Z,20.30
2018-09-01T10:03:03.501Z,20.40
2018-09-01T10:04:06.620Z,20.40
2018-09-01T10:05:09.421Z,20.40
2018-09-01T10:06:12.169Z,20.20
2018-09-01T10:07:15.249Z,20.30
2018-09-01T10:08:18.415Z,20.30
2018-09-01T10:09:21.325Z,20.30
2018-09-01T10:10:24.074Z,20.40
2018-09-01T10:11:26.869Z,20.50
2018-09-01T10:12:29.950Z,20.60
2018-09-01T10:13:32.756Z,20.60
2018-09-01T10:14:35.669Z,20.60
2018-09-01T10:15:38.516Z,20.50
2018-09-01T10:16:41.822Z,20.40
2018-09-01T10:17:44.542Z,20.30
2018-09-01T10:18:47.961Z,20.20
2018-09-01T10:19:50.891Z,20.20
2018-09-01T10:20:54.209Z,20.20
2018-09-01T10:21:56.983Z,20.20
2018-09-01T10:22:59.959Z,20.10
2018-09-01T10:24:02.921Z,20.00
2018-09-01T10:25:05.690Z,20.10
2018-09-01T10:26:08.567Z,20.30
2018-09-01T10:27:11.507Z,20.30
2018-09-01T10:28:14.324Z,20.50
2018-09-01T10:29:17.059Z,20.60
2018-09-01T10:30:19.932Z,20.60
2018-09-01T10:31:22.683Z,20.60
2018-09-01T10:32:25.402Z,20.60
2018-09-01T10:33:28.171Z,20.70
2018-09-01T10:34:30.945Z,20.70
2018-09-01T10:35:33.723Z,20.70
2018-09-01T10:36:36.467Z,20.80
2018-09-01T10:37:39.198Z,20.80
2018-09-01T10:38:41.963Z,20.90
2018-09-01T10:39:44.936Z,21.00
2018-09-01T10:40:47.704Z,21.00
2018-09-01T10:41:50.532Z,21.10
2018-09-01T10:42:53.554Z,21.10
2018-09-01T10:43:56.719Z,21.20
2018-09-01T10:44:59.491Z,21.20
2018-09-01T10:46:02.404Z,21.10
2018-09-01T10:47:05.663Z,21.10
2018-09-01T10:48:08.539Z,21.00
2018-09-01T10:49:11.725Z,21.00
2018-09-01T10:50:14.615Z,21.00
2018-09-01T10:51:17.704Z,21.10
2018-09-01T10:52:20.659Z,21.10
2018-09-01T10:53:23.452Z,21.10
2018-09-01T10:54:26.236Z,21.20
2018-09-01T10:55:29.173Z,21.20
2018-09-01T10:56:32.444Z,21.30
2018-09-01T10:57:35.237Z,21.30
2018-09-01T10:58:38.337Z,21.20
2018-09-01T10:59:41.419Z,21.20
2018-09-01T11:00:44.360Z,21.10
2018-09-01T11:01:47.343Z,21.10
2018-09-01T11:02:51.482Z,21.10
2018-09-01T11:03:54.373Z,20.90
2018-09-01T11:04:57.347Z,20.80
2018-09-01T11:06:00.319Z,20.70
2018-09-01T11:07:03.240Z,20.70
2018-09-01T11:08:06.318Z,20.60
2018-09-01T11:09:10.334Z,20.60
2018-09-01T11:10:13.820Z,20.50
2018-09-01T11:11:17.594Z,20.50
2018-09-01T11:12:21.293Z,20.50
2018-09-01T11:13:24.013Z,20.50
2018-09-01T11:14:27.220Z,20.50
2018-09-01T11:15:30.165Z,20.60
2018-09-01T11:16:33.057Z,20.70
2018-09-01T11:17:35.874Z,20.80
2018-09-01T11:18:38.645Z,20.90
2018-09-01T11:19:43.053Z,21.00
2018-09-01T11:20:46.660Z,21.00
2018-09-01T11:21:49.579Z,21.20
2018-09-01T11:22:52.347Z,21.20
2018-09-01T11:23:55.054Z,21.30
2018-09-01T11:24:57.971Z,21.30
2018-09-01T11:26:00.702Z,21.30
2018-09-01T11:27:03.539Z,21.40
2018-09-01T11:28:06.911Z,21.40
2018-09-01T11:29:09.927Z,21.40
2018-09-01T11:30:13.055Z,21.40
2018-09-01T11:31:16.096Z,21.50
2018-09-01T11:32:18.993Z,21.60
2018-09-01T11:33:21.971Z,21.60
2018-09-01T11:34:24.878Z,21.60
2018-09-01T11:35:27.680Z,21.70
2018-09-01T11:36:30.461Z,21.80
2018-09-01T11:37:33.748Z,21.90
2018-09-01T11:38:36.516Z,21.70
2018-09-01T11:39:39.361Z,21.70
2018-09-01T11:40:42.331Z,21.80
2018-09-01T11:41:45.247Z,21.90
2018-09-01T11:42:48.259Z,21.90
2018-09-01T11:43:50.995Z,21.90
2018-09-01T11:44:53.968Z,22.00
2018-09-01T11:45:57.107Z,22.00
2018-09-01T11:47:00.655Z,22.10
2018-09-01T11:48:03.561Z,22.00
2018-09-01T11:49:07.051Z,22.00
2018-09-01T11:50:10.764Z,21.80
2018-09-01T11:51:14.372Z,21.70
2018-09-01T11:52:18.352Z,21.70
2018-09-01T11:53:22.064Z,21.70
2018-09-01T11:54:25.602Z,21.60
2018-09-01T11:55:29.082Z,21.60
2018-09-01T11:56:32.674Z,21.60
2018-09-01T11:57:36.183Z,21.50
2018-09-01T11:58:39.703Z,21.40
2018-09-01T11:59:43.526Z,21.40
2018-09-01T12:00:47.094Z,21.40
2018-09-01T12:01:50.943Z,21.40
2018-09-01T12:02:54.472Z,21.40
2018-09-01T12:03:58.073Z,21.50
2018-09-01T12:05:01.671Z,21.60
2018-09-01T12:06:05.279Z,21.60
2018-09-01T12:07:09.013Z,21.60
2018-09-01T12:08:12.593Z,21.60
2018-09-01T12:09:16.180Z,21.70
2018-09-01T12:10:19.810Z,21.70
2018-09-01T12:11:24.010Z,21.80
2018-09-01T12:12:27.668Z,21.90
2018-09-01T12:13:31.470Z,22.00
2018-09-01T12:14:34.951Z,22.10
2018-09-01T12:15:38.720Z,22.10
2018-09-01T12:16:42.143Z,22.00
2018-09-01T12:17:45.625Z,21.90
2018-09-01T12:18:49.030Z,21.90
2018-09-01T12:19:52.403Z,21.80
2018-09-01T12:20:55.974Z,21.80
2018-09-01T12:21:59.554Z,21.80
2018-09-01T12:23:03.060Z,21.80
2018-09-01T12:24:06.880Z,21.90
2018-09-01T12:25:10.959Z,21.80
2018-09-01T12:26:14.669Z,21.90
2018-09-01T12:27:18.802Z,21.80
2018-09-01T12:28:22.258Z,21.80
2018-09-01T12:29:26.098Z,21.80
2018-09-01T12:30:29.534Z,21.80
2018-09-01T12:31:33.009Z,21.70
2018-09-01T12:32:36.677Z,21.70
2018-09-01T12:33:40.360Z,21.60
2018-09-01T12:34:43.941Z,21.60
2018-09-01T12:35:47.500Z,21.60
2018-09-01T12:36:51.211Z,21.60
2018-09-01T12:37:54.628Z,21.70
2018-09-01T12:38:58.323Z,21.70
2018-09-01T12:40:01.852Z,21.70
2018-09-01T12:41:05.451Z,21.70
2018-09-01T12:42:09.279Z,21.60
2018-09-01T12:43:12.860Z,21.50
2018-09-01T12:44:16.517Z,21.40
2018-09-01T12:45:20.377Z,21.30
2018-09-01T12:46:23.874Z,21.30
2018-09-01T12:47:27.283Z,21.20
2018-09-01T12:48:31.103Z,21.10
2018-09-01T12:49:34.783Z,21.10
2018-09-01T12:50:38.625Z,21.10
2018-09-01T12:51:42.595Z,21.00
2018-09-01T12:52:46.380Z,21.00
2018-09-01T12:53:49.909Z,21.00
2018-09-01T12:54:53.571Z,21.00
2018-09-01T12:55:57.422Z,21.00
2018-09-01T12:57:00.900Z,21.00
2018-09-01T12:58:04.692Z,21.00
2018-09-01T12:59:08.514Z,21.00
2018-09-01T13:00:12.152Z,21.10
2018-09-01T13:01:15.759Z,21.20
2018-09-01T13:02:20.252Z,21.20
2018-09-01T13:03:23.679Z,21.30
2018-09-01T13:04:27.185Z,21.30
2018-09-01T13:05:30.762Z,21.30
2018-09-01T13:06:34.176Z,21.40
2018-09-01T13:07:37.800Z,21.50
2018-09-01T13:08:41.764Z,21.50
2018-09-01T13:09:45.090Z,21.50
2018-09-01T13:10:48.658Z,21.60
2018-09-01T13:11:52.254Z,21.60
2018-09-01T13:12:55.675Z,21.60
2018-09-01T13:13:59.398Z,21.60
2018-09-01T13:15:02.931Z,21.60
2018-09-01T13:16:06.638Z,21.60
2018-09-01T13:17:10.624Z,21.70
2018-09-01T13:18:14.008Z,21.70
2018-09-01T13:19:17.396Z,21.70
2018-09-01T13:20:20.920Z,21.80
2018-09-01T13:21:24.611Z,21.80
2018-09-01T13:22:28.491Z,21.90
2018-09-01T13:23:32.277Z,21.90
2018-09-01T13:24:35.742Z,21.90
2018-09-01T13:25:39.513Z,21.90
2018-09-01T13:26:43.254Z,21.90
2018-09-01T13:27:46.679Z,22.00
2018-09-01T13:28:50.128Z,22.00
2018-09-01T13:30:00.480Z,22.10
2018-09-01T13:31:04.195Z,22.00
2018-09-01T13:32:07.914Z,22.00
2018-09-01T13:33:11.663Z,22.00
2018-09-01T13:34:15.225Z,22.00
2018-09-01T13:35:18.900Z,22.00